createdAt,value
2016-12-02T00:00:52.839Z,7.48
2016-12-02T00:01:52.960Z,7.51
2016-12-02T00:02:53.125Z,7.37
2016-12-02T00:03:53.074Z,7.39
2016-12-02T00:04:53.146Z,7.44
2016-12-02T00:05:52.987Z,7.6
2016-12-02T00:06:52.889Z,7.42
2016-12-02T00:07:52.921Z,7.52
2016-12-02T00:08:53.142Z,7.5
2016-12-02T00:09:52.943Z,7.55
2016-12-02T00:10:53.018Z,7.52
2016-12-02T00:11:52.993Z,7.57
2016-12-02T00:12:52.945Z,7.57
2016-12-02T00:13:53.114Z,7.57
2016-12-02T00:14:52.916Z,7.54
2016-12-02T00:15:53.004Z,7.57
2016-12-02T00:16:52.918Z,7.58
2016-12-02T00:17:53.447Z,7.52
2016-12-02T00:18:53.021Z,7.6
2016-12-02T00:19:53.074Z,7.58
2016-12-02T00:20:52.865Z,7.6
2016-12-02T00:21:52.907Z,7.55
2016-12-02T00:22:52.884Z,7.62
2016-12-02T00:23:53.833Z,7.67
2016-12-02T00:24:52.868Z,7.58
2016-12-02T00:25:52.961Z,7.58
2016-12-02T00:26:52.910Z,7.6
2016-12-02T00:27:52.880Z,7.58
2016-12-02T00:28:52.895Z,7.6
2016-12-02T00:29:52.944Z,7.63
2016-12-02T00:30:52.900Z,7.69
2016-12-02T00:31:52.872Z,7.73
2016-12-02T00:32:52.917Z,7.58
2016-12-02T00:33:52.981Z,7.62
2016-12-02T00:34:52.915Z,7.67
2016-12-02T00:35:52.935Z,7.71
2016-12-02T00:36:52.882Z,7.76
2016-12-02T00:37:53.043Z,7.77
2016-12-02T00:38:52.970Z,7.7
2016-12-02T00:39:53.125Z,7.71
2016-12-02T00:40:53.649Z,7.66
2016-12-02T00:41:52.914Z,7.67
2016-12-02T00:42:52.885Z,7.7
2016-12-02T00:43:52.908Z,7.77
2016-12-02T00:44:53.033Z,7.79
2016-12-02T00:45:52.952Z,7.71
2016-12-02T00:46:52.895Z,7.71
2016-12-02T00:47:52.995Z,7.77
2016-12-02T00:48:53.064Z,7.77
2016-12-02T00:49:53.051Z,7.79
2016-12-02T00:50:52.886Z,7.77
2016-12-02T00:51:52.924Z,7.88
2016-12-02T00:52:52.876Z,7.79
2016-12-02T00:53:53.024Z,7.82
2016-12-02T00:54:53.984Z,7.84
2016-12-02T00:55:53.055Z,7.88
2016-12-02T00:56:52.882Z,7.85
2016-12-02T00:57:53.045Z,7.92
2016-12-02T00:58:52.929Z,7.92
2016-12-02T00:59:53.143Z,7.82
2016-12-02T01:00:52.905Z,7.86
2016-12-02T01:01:53.038Z,7.92
2016-12-02T01:02:52.935Z,7.86
2016-12-02T01:03:52.885Z,7.94
2016-12-02T01:04:52.997Z,7.94
2016-12-02T01:05:52.973Z,7.92
2016-12-02T01:06:52.897Z,7.95
2016-12-02T01:07:53.065Z,7.92
2016-12-02T01:08:53.002Z,7.95
2016-12-02T01:09:53.102Z,7.89
2016-12-02T01:10:52.889Z,7.86
2016-12-02T01:11:53.055Z,7.94
2016-12-02T01:12:52.910Z,7.89
2016-12-02T01:13:53.039Z,7.88
2016-12-02T01:14:53.531Z,7.91
2016-12-02T01:15:53.033Z,7.86
2016-12-02T01:16:53.147Z,7.92
2016-12-02T01:17:52.969Z,7.89
2016-12-02T01:18:52.886Z,7.95
2016-12-02T01:19:52.952Z,7.95
2016-12-02T01:20:52.907Z,7.92
2016-12-02T01:21:52.972Z,7.96
2016-12-02T01:22:52.926Z,7.89
2016-12-02T01:23:52.998Z,7.94
2016-12-02T01:24:55.027Z,8.02
2016-12-02T01:25:53.019Z,7.89
2016-12-02T01:26:53.007Z,7.92
2016-12-02T01:27:52.955Z,7.88
2016-12-02T01:28:52.986Z,7.89
2016-12-02T01:29:52.963Z,7.91
2016-12-02T01:30:52.946Z,7.96
2016-12-02T01:31:53.095Z,7.88
2016-12-02T01:32:52.938Z,7.92
2016-12-02T01:33:52.942Z,7.88
2016-12-02T01:34:52.933Z,7.91
2016-12-02T01:35:53.037Z,7.91
2016-12-02T01:36:52.955Z,7.91
2016-12-02T01:37:52.965Z,7.91
2016-12-02T01:38:52.985Z,7.95
2016-12-02T01:39:53.017Z,7.91
2016-12-02T01:40:52.936Z,7.94
2016-12-02T01:41:53.103Z,7.95
2016-12-02T01:42:53.092Z,7.89
2016-12-02T01:43:53.066Z,7.96
2016-12-02T01:44:52.961Z,7.94
2016-12-02T01:45:53.056Z,8.03
2016-12-02T01:46:53.067Z,7.89
2016-12-02T01:47:52.947Z,7.88
2016-12-02T01:48:52.936Z,7.96
2016-12-02T01:49:53.117Z,7.92
2016-12-02T01:50:52.960Z,8.02
2016-12-02T01:51:53.055Z,8.02
2016-12-02T01:52:52.917Z,7.96
2016-12-02T01:53:53.013Z,8.02
2016-12-02T01:54:53.031Z,7.94
2016-12-02T01:55:53.178Z,7.94
2016-12-02T01:56:53.074Z,7.92
2016-12-02T01:57:53.132Z,7.95
2016-12-02T01:58:53.059Z,7.91
2016-12-02T01:59:52.985Z,8.02
2016-12-02T02:00:52.946Z,8
2016-12-02T02:01:52.985Z,7.96
2016-12-02T02:02:53.078Z,7.91
2016-12-02T02:03:53.076Z,7.94
2016-12-02T02:04:52.955Z,8.06
2016-12-02T02:05:55.654Z,8.06
2016-12-02T02:06:52.964Z,7.94
2016-12-02T02:07:53.127Z,8
2016-12-02T02:08:52.976Z,8.03
2016-12-02T02:09:53.046Z,7.99
2016-12-02T02:10:53.022Z,7.92
2016-12-02T02:11:53.092Z,7.99
2016-12-02T02:12:52.977Z,8.02
2016-12-02T02:13:52.986Z,7.96
2016-12-02T02:14:53.017Z,7.91
2016-12-02T02:15:53.125Z,7.91
2016-12-02T02:16:53.012Z,7.91
2016-12-02T02:17:53.019Z,7.89
2016-12-02T02:18:53.016Z,8
2016-12-02T02:19:52.974Z,7.88
2016-12-02T02:20:52.997Z,7.86
2016-12-02T02:21:53.032Z,7.84
2016-12-02T02:22:53.095Z,7.79
2016-12-02T02:23:53.058Z,7.82
2016-12-02T02:24:52.998Z,7.88
2016-12-02T02:25:53.127Z,7.81
2016-12-02T02:26:53.016Z,7.89
2016-12-02T02:27:53.066Z,7.84
2016-12-02T02:28:53.027Z,7.86
2016-12-02T02:29:53.626Z,7.91
2016-12-02T02:30:53.005Z,7.88
2016-12-02T02:31:53.055Z,7.85
2016-12-02T02:32:52.956Z,7.86
2016-12-02T02:33:52.995Z,7.84
2016-12-02T02:34:53.046Z,7.82
2016-12-02T02:35:53.044Z,7.89
2016-12-02T02:36:53.027Z,7.88
2016-12-02T02:37:53.728Z,7.85
2016-12-02T02:38:52.985Z,7.86
2016-12-02T02:39:53.096Z,7.85
2016-12-02T02:40:53.132Z,7.84
2016-12-02T02:41:53.005Z,7.86
2016-12-02T02:42:53.066Z,7.91
2016-12-02T02:43:53.099Z,7.88
2016-12-02T02:44:53.005Z,7.91
2016-12-02T02:45:53.164Z,7.91
2016-12-02T02:46:53.087Z,7.94
2016-12-02T02:47:53.112Z,7.91
2016-12-02T02:48:53.259Z,7.85
2016-12-02T02:49:53.265Z,7.85
2016-12-02T02:50:53.194Z,7.84
2016-12-02T02:51:53.229Z,7.91
2016-12-02T02:52:53.233Z,7.86
2016-12-02T02:53:53.245Z,7.86
2016-12-02T02:54:53.164Z,7.81
2016-12-02T02:55:53.270Z,7.86
2016-12-02T02:56:53.292Z,7.89
2016-12-02T02:57:53.215Z,7.84
2016-12-02T02:58:53.213Z,7.95
2016-12-02T02:59:53.220Z,7.89
2016-12-02T03:00:53.341Z,7.89
2016-12-02T03:01:53.391Z,7.84
2016-12-02T03:02:53.294Z,7.88
2016-12-02T03:03:53.406Z,7.86
2016-12-02T03:04:53.289Z,7.91
2016-12-02T03:05:53.176Z,7.88
2016-12-02T03:06:53.386Z,7.77
2016-12-02T03:07:53.206Z,7.88
2016-12-02T03:08:53.251Z,7.86
2016-12-02T03:09:53.239Z,7.81
2016-12-02T03:10:53.284Z,7.89
2016-12-02T03:11:53.327Z,7.85
2016-12-02T03:12:53.343Z,7.91
2016-12-02T03:13:53.316Z,7.89
2016-12-02T03:14:53.270Z,7.92
2016-12-02T03:15:53.153Z,7.88
2016-12-02T03:16:53.260Z,7.85
2016-12-02T03:17:53.183Z,7.91
2016-12-02T03:18:53.224Z,7.91
2016-12-02T03:19:53.322Z,7.88
2016-12-02T03:20:53.334Z,7.86
2016-12-02T03:21:53.195Z,7.91
2016-12-02T03:22:53.171Z,7.91
2016-12-02T03:23:53.350Z,7.86
2016-12-02T03:24:53.372Z,7.85
2016-12-02T03:25:53.143Z,7.82
2016-12-02T03:26:53.228Z,7.95
2016-12-02T03:27:53.859Z,7.84
2016-12-02T03:28:53.251Z,7.86
2016-12-02T03:29:53.190Z,7.79
2016-12-02T03:30:53.281Z,7.79
2016-12-02T03:31:53.318Z,7.77
2016-12-02T03:32:53.394Z,7.79
2016-12-02T03:33:53.253Z,7.81
2016-12-02T03:34:53.298Z,7.73
2016-12-02T03:35:53.201Z,7.79
2016-12-02T03:36:53.242Z,7.82
2016-12-02T03:37:53.372Z,7.77
2016-12-02T03:38:53.243Z,7.76
2016-12-02T03:39:53.262Z,7.73
2016-12-02T03:40:53.368Z,7.74
2016-12-02T03:41:53.312Z,7.67
2016-12-02T03:42:53.246Z,7.67
2016-12-02T03:47:22.291Z,7.67
2016-12-02T03:48:22.310Z,7.67
2016-12-02T03:49:22.308Z,7.67
2016-12-02T03:50:22.371Z,7.74
2016-12-02T03:51:23.556Z,7.73
2016-12-02T03:52:22.539Z,7.73
2016-12-02T03:53:22.330Z,7.71
2016-12-02T03:54:22.367Z,7.6
2016-12-02T03:55:22.323Z,7.6
2016-12-02T03:56:22.470Z,7.6
2016-12-02T03:57:22.432Z,7.57
2016-12-02T03:58:22.329Z,7.52
2016-12-02T03:59:22.276Z,7.6
2016-12-02T04:00:22.399Z,7.54
2016-12-02T04:01:22.382Z,7.52
2016-12-02T04:02:22.412Z,7.52
2016-12-02T04:03:22.377Z,7.52
2016-12-02T04:04:22.329Z,7.42
2016-12-02T04:05:22.476Z,7.36
2016-12-02T04:06:22.387Z,7.41
2016-12-02T04:07:22.304Z,7.39
2016-12-02T04:08:22.478Z,7.33
2016-12-02T04:09:22.299Z,7.34
2016-12-02T04:10:22.362Z,7.32
2016-12-02T04:11:22.298Z,7.36
2016-12-02T04:12:22.379Z,7.33
2016-12-02T04:13:22.320Z,7.39
2016-12-02T04:14:22.517Z,7.37
2016-12-02T04:15:22.483Z,7.39
2016-12-02T04:16:22.439Z,7.41
2016-12-02T04:17:22.531Z,7.36
2016-12-02T04:18:22.500Z,7.44
2016-12-02T04:19:22.482Z,7.37
2016-12-02T04:20:23.222Z,7.34
2016-12-02T04:21:22.386Z,7.44
2016-12-02T04:22:22.509Z,7.45
2016-12-02T04:23:22.530Z,7.41
2016-12-02T04:24:22.481Z,7.41
2016-12-02T04:25:22.455Z,7.36
2016-12-02T04:26:22.380Z,7.44
2016-12-02T04:27:22.561Z,7.41
2016-12-02T04:28:22.528Z,7.39
2016-12-02T04:29:22.360Z,7.41
2016-12-02T04:30:32.307Z,7.45
2016-12-02T04:31:22.525Z,7.48
2016-12-02T04:32:22.370Z,7.5
2016-12-02T04:33:22.503Z,7.41
2016-12-02T04:34:22.351Z,7.45
2016-12-02T04:35:22.521Z,7.33
2016-12-02T04:36:22.531Z,7.36
2016-12-02T04:37:22.269Z,7.41
2016-12-02T04:38:22.431Z,7.41
2016-12-02T04:39:22.382Z,7.44
2016-12-02T04:40:22.573Z,7.45
2016-12-02T04:41:22.492Z,7.36
2016-12-02T04:42:22.450Z,7.33
2016-12-02T04:43:22.381Z,7.32
2016-12-02T04:44:22.392Z,7.37
2016-12-02T04:45:22.470Z,7.37
2016-12-02T04:46:22.391Z,7.41
2016-12-02T04:47:22.600Z,7.41
2016-12-02T04:48:22.475Z,7.41
2016-12-02T04:49:22.403Z,7.42
2016-12-02T04:50:22.384Z,7.37
2016-12-02T04:51:22.495Z,7.41
2016-12-02T04:52:22.370Z,7.37
2016-12-02T04:53:22.392Z,7.34
2016-12-02T04:54:22.393Z,7.29
2016-12-02T04:55:22.340Z,7.34
2016-12-02T04:56:22.631Z,7.39
2016-12-02T04:57:22.417Z,7.33
2016-12-02T04:58:22.482Z,7.44
2016-12-02T04:59:22.461Z,7.37
2016-12-02T05:00:22.499Z,7.42
2016-12-02T05:01:22.471Z,7.42
2016-12-02T05:02:22.518Z,7.41
2016-12-02T05:03:22.478Z,7.44
2016-12-02T05:04:22.521Z,7.45
2016-12-02T05:05:22.572Z,7.47
2016-12-02T05:06:22.394Z,7.48
2016-12-02T05:07:22.481Z,7.45
2016-12-02T05:08:22.530Z,7.41
2016-12-02T05:09:22.355Z,7.37
2016-12-02T05:10:22.444Z,7.39
2016-12-02T05:11:23.240Z,7.45
2016-12-02T05:12:22.392Z,7.44
2016-12-02T05:13:22.529Z,7.44
2016-12-02T05:14:22.602Z,7.47
2016-12-02T05:15:22.505Z,7.48
2016-12-02T05:16:22.420Z,7.48
2016-12-02T05:17:22.440Z,7.44
2016-12-02T05:18:22.453Z,7.47
2016-12-02T05:19:22.522Z,7.42
2016-12-02T05:20:22.611Z,7.42
2016-12-02T05:21:22.538Z,7.42
2016-12-02T05:22:22.436Z,7.47
2016-12-02T05:23:22.461Z,7.45
2016-12-02T05:24:22.488Z,7.42
2016-12-02T05:25:22.400Z,7.41
2016-12-02T05:26:22.477Z,7.39
2016-12-02T05:27:22.576Z,7.41
2016-12-02T05:28:22.407Z,7.42
2016-12-02T05:29:22.449Z,7.51
2016-12-02T05:30:22.443Z,7.55
2016-12-02T05:31:22.581Z,7.58
2016-12-02T05:32:22.562Z,7.45
2016-12-02T05:33:22.419Z,7.52
2016-12-02T05:34:22.473Z,7.54
2016-12-02T05:35:22.398Z,7.52
2016-12-02T05:36:22.564Z,7.51
2016-12-02T05:37:22.483Z,7.51
2016-12-02T05:38:22.583Z,7.54
2016-12-02T05:39:22.497Z,7.55
2016-12-02T05:40:22.534Z,7.57
2016-12-02T05:41:22.407Z,7.52
2016-12-02T05:42:22.462Z,7.58
2016-12-02T05:46:52.459Z,7.47
2016-12-02T05:47:52.373Z,7.44
2016-12-02T05:48:52.468Z,7.52
2016-12-02T05:49:52.425Z,7.48
2016-12-02T05:50:52.398Z,7.45
2016-12-02T05:51:52.397Z,7.42
2016-12-02T05:52:52.501Z,7.45
2016-12-02T05:53:52.458Z,7.55
2016-12-02T05:54:52.383Z,7.52
2016-12-02T05:55:52.583Z,7.55
2016-12-02T05:56:52.476Z,7.55
2016-12-02T05:57:52.573Z,7.55
2016-12-02T05:58:52.482Z,7.6
2016-12-02T05:59:52.371Z,7.63
2016-12-02T06:00:52.571Z,7.58
2016-12-02T06:01:52.441Z,7.55
2016-12-02T06:02:52.459Z,7.66
2016-12-02T06:03:52.393Z,7.62
2016-12-02T06:04:52.544Z,7.58
2016-12-02T06:05:52.429Z,7.63
2016-12-02T06:06:52.627Z,7.54
2016-12-02T06:07:52.508Z,7.58
2016-12-02T06:08:52.417Z,7.62
2016-12-02T06:09:52.457Z,7.6
2016-12-02T06:10:52.563Z,7.6
2016-12-02T06:11:52.449Z,7.58
2016-12-02T06:12:52.687Z,7.69
2016-12-02T06:13:52.386Z,7.62
2016-12-02T06:14:52.442Z,7.63
2016-12-02T06:15:52.439Z,7.55
2016-12-02T06:16:52.606Z,7.67
2016-12-02T06:17:52.447Z,7.66
2016-12-02T06:18:52.745Z,7.58
2016-12-02T06:19:52.410Z,7.62
2016-12-02T06:20:52.597Z,7.58
2016-12-02T06:21:52.372Z,7.57
2016-12-02T06:22:52.684Z,7.62
2016-12-02T06:23:52.350Z,7.62
2016-12-02T06:24:52.699Z,7.58
2016-12-02T06:25:52.330Z,7.62
2016-12-02T06:26:52.615Z,7.6
2016-12-02T06:27:52.465Z,7.66
2016-12-02T06:28:52.471Z,7.62
2016-12-02T06:29:52.519Z,7.6
2016-12-02T06:30:52.495Z,7.6
2016-12-02T06:31:52.458Z,7.62
2016-12-02T06:32:52.610Z,7.58
2016-12-02T06:33:52.470Z,7.67
2016-12-02T06:34:52.641Z,7.62
2016-12-02T06:35:52.583Z,7.58
2016-12-02T06:36:52.789Z,7.6
2016-12-02T06:37:52.720Z,7.58
2016-12-02T06:38:52.547Z,7.6
2016-12-02T06:39:52.553Z,7.6
2016-12-02T06:40:52.479Z,7.62
2016-12-02T06:41:52.507Z,7.71
2016-12-02T06:42:52.481Z,7.57
2016-12-02T06:43:52.515Z,7.63
2016-12-02T06:44:52.440Z,7.55
2016-12-02T06:45:52.437Z,7.69
2016-12-02T06:46:52.518Z,7.7
2016-12-02T06:47:52.438Z,7.7
2016-12-02T06:48:52.637Z,7.73
2016-12-02T06:49:52.454Z,7.71
2016-12-02T06:50:52.579Z,7.6
2016-12-02T06:51:52.495Z,7.63
2016-12-02T06:52:52.514Z,7.71
2016-12-02T06:53:53.008Z,7.81
2016-12-02T06:54:52.732Z,7.69
2016-12-02T06:55:52.635Z,7.79
2016-12-02T06:56:52.448Z,7.7
2016-12-02T06:57:52.520Z,7.71
2016-12-02T06:58:52.675Z,7.73
2016-12-02T06:59:52.536Z,7.74
2016-12-02T07:00:52.698Z,7.74
2016-12-02T07:01:52.474Z,7.76
2016-12-02T07:02:52.747Z,7.74
2016-12-02T07:03:52.459Z,7.7
2016-12-02T07:04:52.492Z,7.74
2016-12-02T07:05:52.592Z,7.86
2016-12-02T07:06:52.775Z,7.91
2016-12-02T07:07:52.572Z,7.82
2016-12-02T07:08:52.580Z,7.88
2016-12-02T07:09:52.529Z,7.82
2016-12-02T07:10:52.709Z,7.79
2016-12-02T07:11:52.509Z,7.7
2016-12-02T07:12:52.622Z,7.71
2016-12-02T07:13:52.509Z,7.91
2016-12-02T07:14:52.463Z,7.85
2016-12-02T07:15:52.523Z,7.79
2016-12-02T07:16:52.454Z,7.77
2016-12-02T07:17:52.539Z,7.77
2016-12-02T07:18:52.557Z,7.74
2016-12-02T07:19:52.510Z,7.74
2016-12-02T07:20:53.261Z,7.66
2016-12-02T07:21:52.475Z,7.71
2016-12-02T07:22:52.718Z,7.76
2016-12-02T07:23:52.505Z,7.82
2016-12-02T07:24:53.214Z,7.79
2016-12-02T07:25:52.449Z,7.73
2016-12-02T07:26:52.559Z,7.77
2016-12-02T07:27:52.580Z,7.76
2016-12-02T07:28:52.551Z,7.71
2016-12-02T07:29:52.540Z,7.7
2016-12-02T07:30:52.751Z,7.77
2016-12-02T07:31:52.548Z,7.82
2016-12-02T07:32:52.685Z,7.76
2016-12-02T07:33:52.492Z,7.74
2016-12-02T07:34:52.596Z,7.73
2016-12-02T07:35:52.582Z,7.77
2016-12-02T07:36:52.650Z,7.74
2016-12-02T07:37:52.632Z,7.76
2016-12-02T07:38:52.492Z,7.74
2016-12-02T07:39:52.561Z,7.85
2016-12-02T07:40:52.597Z,7.91
2016-12-02T07:41:52.564Z,7.82
2016-12-02T07:42:52.615Z,7.86
2016-12-02T07:43:52.495Z,7.81
2016-12-02T07:44:52.563Z,7.86
2016-12-02T07:45:52.623Z,7.81
2016-12-02T07:46:52.570Z,7.88
2016-12-02T07:47:52.517Z,7.84
2016-12-02T07:48:52.629Z,7.85
2016-12-02T07:49:53.133Z,7.85
2016-12-02T07:50:52.636Z,7.86
2016-12-02T07:51:52.610Z,7.88
2016-12-02T07:52:52.534Z,7.88
2016-12-02T07:53:52.478Z,7.84
2016-12-02T07:54:52.532Z,7.88
2016-12-02T07:55:52.658Z,7.91
2016-12-02T07:56:52.512Z,7.88
2016-12-02T07:57:52.533Z,7.92
2016-12-02T07:58:52.579Z,7.94
2016-12-02T07:59:52.548Z,7.92
2016-12-02T08:00:52.508Z,7.89
2016-12-02T08:01:52.489Z,7.94
2016-12-02T08:02:52.590Z,7.91
2016-12-02T08:03:52.495Z,7.94
2016-12-02T08:04:52.574Z,7.92
2016-12-02T08:05:52.541Z,7.94
2016-12-02T08:06:52.511Z,7.91
2016-12-02T08:07:52.660Z,7.94
2016-12-02T08:08:52.716Z,7.94
2016-12-02T08:09:52.516Z,8.04
2016-12-02T08:10:52.990Z,7.94
2016-12-02T08:11:52.885Z,8.04
2016-12-02T08:12:52.619Z,8.09
2016-12-02T08:13:52.982Z,8.1
2016-12-02T08:14:52.829Z,8.13
2016-12-02T08:15:52.721Z,8.1
2016-12-02T08:16:52.642Z,8.14
2016-12-02T08:17:52.925Z,8.17
2016-12-02T08:18:52.849Z,8.09
2016-12-02T08:19:52.965Z,8.2
2016-12-02T08:20:53.168Z,8.12
2016-12-02T08:21:52.990Z,8.22
2016-12-02T08:22:52.817Z,8.24
2016-12-02T08:23:53.288Z,8.22
2016-12-02T08:24:52.646Z,8.13
2016-12-02T08:25:52.731Z,8.24
2016-12-02T08:26:52.653Z,8.22
2016-12-02T08:27:52.784Z,8.17
2016-12-02T08:28:52.597Z,8.14
2016-12-02T08:29:52.759Z,8.18
2016-12-02T08:30:52.737Z,8.27
2016-12-02T08:31:52.909Z,8.25
2016-12-02T08:32:52.615Z,8.29
2016-12-02T08:33:52.601Z,8.25
2016-12-02T08:34:52.632Z,8.28
2016-12-02T08:35:52.578Z,8.22
2016-12-02T08:36:52.466Z,8.25
2016-12-02T08:37:53.372Z,8.24
2016-12-02T08:38:52.760Z,8.27
2016-12-02T08:39:52.502Z,8.32
2016-12-02T08:40:52.807Z,8.43
2016-12-02T08:41:52.576Z,8.37
2016-12-02T08:42:52.569Z,8.45
2016-12-02T08:43:52.593Z,8.34
2016-12-02T08:44:52.706Z,8.42
2016-12-02T08:45:52.796Z,8.43
2016-12-02T08:46:52.651Z,8.25
2016-12-02T08:47:52.616Z,8.25
2016-12-02T08:48:52.549Z,8.25
2016-12-02T08:49:52.704Z,8.27
2016-12-02T08:50:52.831Z,8.24
2016-12-02T08:51:52.540Z,8.46
2016-12-02T08:52:52.582Z,8.46
2016-12-02T08:53:52.565Z,8.47
2016-12-02T08:54:52.616Z,8.49
2016-12-02T08:55:52.544Z,8.49
2016-12-02T08:56:52.675Z,8.49
2016-12-02T08:57:52.696Z,8.4
2016-12-02T08:58:52.729Z,8.46
2016-12-02T08:59:52.586Z,8.43
2016-12-02T09:00:52.616Z,8.49
2016-12-02T09:01:52.589Z,8.55
2016-12-02T09:02:52.625Z,8.82
2016-12-02T09:03:52.668Z,8.68
2016-12-02T09:04:52.603Z,8.76
2016-12-02T09:05:52.585Z,8.79
2016-12-02T09:06:52.820Z,8.75
2016-12-02T09:07:52.707Z,8.67
2016-12-02T09:08:52.786Z,8.68
2016-12-02T09:09:52.723Z,8.85
2016-12-02T09:10:52.783Z,8.78
2016-12-02T09:11:52.684Z,8.83
2016-12-02T09:12:52.960Z,8.78
2016-12-02T09:13:52.688Z,8.83
2016-12-02T09:14:52.810Z,8.71
2016-12-02T09:15:52.611Z,8.75
2016-12-02T09:16:54.075Z,8.75
2016-12-02T09:17:52.826Z,8.73
2016-12-02T09:18:52.917Z,8.71
2016-12-02T09:19:52.842Z,8.8
2016-12-02T09:20:52.837Z,8.73
2016-12-02T09:21:52.775Z,8.83
2016-12-02T09:22:52.804Z,8.71
2016-12-02T09:23:52.574Z,8.79
2016-12-02T09:24:53.330Z,8.82
2016-12-02T09:25:52.611Z,8.86
2016-12-02T09:26:52.682Z,8.98
2016-12-02T09:27:52.776Z,8.96
2016-12-02T09:28:52.642Z,8.98
2016-12-02T09:29:52.638Z,8.98
2016-12-02T09:30:52.752Z,9
2016-12-02T09:31:52.810Z,8.89
2016-12-02T09:32:52.987Z,8.91
2016-12-02T09:33:52.721Z,8.85
2016-12-02T09:34:52.790Z,8.88
2016-12-02T09:35:52.659Z,8.97
2016-12-02T09:36:52.896Z,8.85
2016-12-02T09:37:52.756Z,8.78
2016-12-02T09:38:52.625Z,8.88
2016-12-02T09:39:52.676Z,8.85
2016-12-02T09:40:52.867Z,8.91
2016-12-02T09:41:52.729Z,8.86
2016-12-02T09:42:52.710Z,8.88
2016-12-02T09:43:52.749Z,8.97
2016-12-02T09:48:21.562Z,9.17
2016-12-02T09:49:21.493Z,9.16
2016-12-02T09:50:21.654Z,9.1
2016-12-02T09:51:21.461Z,9.16
2016-12-02T09:52:21.484Z,9.15
2016-12-02T09:53:21.516Z,9.1
2016-12-02T09:54:21.538Z,9.1
2016-12-02T09:55:21.572Z,9.22
2016-12-02T09:56:22.114Z,9.3
2016-12-02T09:57:21.638Z,9.23
2016-12-02T09:58:21.637Z,9.27
2016-12-02T09:59:21.565Z,9.26
2016-12-02T10:00:21.680Z,9.26
2016-12-02T10:01:21.579Z,9.16
2016-12-02T10:02:21.888Z,9.16
2016-12-02T10:03:21.897Z,9.17
2016-12-02T10:04:21.660Z,9.3
2016-12-02T10:05:21.573Z,9.17
2016-12-02T10:06:21.582Z,9.24
2016-12-02T10:07:21.478Z,9.15
2016-12-02T10:08:21.716Z,9.17
2016-12-02T10:09:21.580Z,9.22
2016-12-02T10:10:21.587Z,9.37
2016-12-02T10:11:21.532Z,9.42
2016-12-02T10:12:21.571Z,9.45
2016-12-02T10:13:21.592Z,9.45
2016-12-02T10:14:21.697Z,9.5
2016-12-02T10:15:21.619Z,9.58
2016-12-02T10:16:21.861Z,9.53
2016-12-02T10:17:21.534Z,9.59
2016-12-02T10:18:21.587Z,9.56
2016-12-02T10:19:21.560Z,9.56
2016-12-02T10:20:21.522Z,9.59
2016-12-02T10:21:21.500Z,9.6
2016-12-02T10:22:21.544Z,9.65
2016-12-02T10:23:21.690Z,9.63
2016-12-02T10:24:21.559Z,9.6
2016-12-02T10:25:21.439Z,9.7
2016-12-02T10:26:21.521Z,9.58
2016-12-02T10:27:21.650Z,9.67
2016-12-02T10:28:21.661Z,9.71
2016-12-02T10:29:21.544Z,9.67
2016-12-02T10:30:21.610Z,9.77
2016-12-02T10:31:21.669Z,9.77
2016-12-02T10:32:21.520Z,9.81
2016-12-02T10:33:21.574Z,9.85
2016-12-02T10:34:21.644Z,9.96
2016-12-02T10:35:21.591Z,10.01
2016-12-02T10:36:21.631Z,9.98
2016-12-02T10:37:21.632Z,9.99
2016-12-02T10:38:21.725Z,9.98
2016-12-02T10:39:21.545Z,10.06
2016-12-02T10:40:21.627Z,10.16
2016-12-02T10:41:22.285Z,10.09
2016-12-02T10:42:21.650Z,9.99
2016-12-02T10:43:22.255Z,10.26
2016-12-02T10:44:22.797Z,10.28
2016-12-02T10:45:22.457Z,10.6
2016-12-02T10:46:22.293Z,10.51
2016-12-02T10:47:22.277Z,10.49
2016-12-02T10:48:22.553Z,10.46
2016-12-02T10:49:22.599Z,10.51
2016-12-02T10:50:22.179Z,10.75
2016-12-02T10:51:22.464Z,10.63
2016-12-02T10:52:22.784Z,10.58
2016-12-02T10:53:22.458Z,10.55
2016-12-02T10:54:22.459Z,10.46
2016-12-02T10:55:22.606Z,10.49
2016-12-02T10:56:21.615Z,10.35
2016-12-02T10:57:21.498Z,10.25
2016-12-02T10:58:21.672Z,10.2
2016-12-02T10:59:21.500Z,10.18
2016-12-02T11:00:21.663Z,10.02
2016-12-02T11:01:21.563Z,9.91
2016-12-02T11:02:21.647Z,9.99
2016-12-02T11:03:21.629Z,9.93
2016-12-02T11:04:21.563Z,9.91
2016-12-02T11:05:21.622Z,9.8
2016-12-02T11:06:21.662Z,9.81
2016-12-02T11:07:21.568Z,9.96
2016-12-02T11:08:21.787Z,9.83
2016-12-02T11:09:21.614Z,9.77
2016-12-02T11:10:21.652Z,9.7
2016-12-02T11:11:21.586Z,9.67
2016-12-02T11:12:21.815Z,9.68
2016-12-02T11:13:21.863Z,9.59
2016-12-02T11:14:21.806Z,9.59
2016-12-02T11:15:21.559Z,9.71
2016-12-02T11:16:21.845Z,9.74
2016-12-02T11:17:21.602Z,9.77
2016-12-02T11:18:21.763Z,9.77
2016-12-02T11:19:21.583Z,9.95
2016-12-02T11:20:21.736Z,9.99
2016-12-02T11:21:21.668Z,10.02
2016-12-02T11:22:21.719Z,10.04
2016-12-02T11:23:22.332Z,10.09
2016-12-02T11:24:21.714Z,10.28
2016-12-02T11:25:21.822Z,10.38
2016-12-02T11:26:21.753Z,10.44
2016-12-02T11:27:21.647Z,10.43
2016-12-02T11:28:21.761Z,10.43
2016-12-02T11:29:21.681Z,10.34
2016-12-02T11:30:21.740Z,10.28
2016-12-02T11:31:21.643Z,10.39
2016-12-02T11:32:21.538Z,10.22
2016-12-02T11:33:21.843Z,10.26
2016-12-02T11:34:21.649Z,10.24
2016-12-02T11:35:21.653Z,10.29
2016-12-02T11:36:21.706Z,10.31
2016-12-02T11:37:21.682Z,10.28
2016-12-02T11:38:21.737Z,10.24
2016-12-02T11:39:21.590Z,10.29
2016-12-02T11:40:21.615Z,10.26
2016-12-02T11:41:21.671Z,10.36
2016-12-02T11:42:21.634Z,10.68
2016-12-02T11:43:21.631Z,10.76
2016-12-02T11:44:21.705Z,10.86
2016-12-02T11:45:21.578Z,10.87
2016-12-02T11:46:21.680Z,10.86
2016-12-02T11:47:21.643Z,10.9
2016-12-02T11:48:21.781Z,10.86
2016-12-02T11:49:21.644Z,10.81
2016-12-02T11:50:21.663Z,10.75
2016-12-02T11:51:21.662Z,10.65
2016-12-02T11:52:21.745Z,10.7
2016-12-02T11:53:21.673Z,10.76
2016-12-02T11:54:21.639Z,10.8
2016-12-02T11:55:21.569Z,10.83
2016-12-02T11:56:21.676Z,10.83
2016-12-02T11:57:21.664Z,10.91
2016-12-02T11:58:21.775Z,10.83
2016-12-02T11:59:21.643Z,10.94
2016-12-02T12:00:21.691Z,10.8
2016-12-02T12:01:21.611Z,10.86
2016-12-02T12:02:21.640Z,10.93
2016-12-02T12:03:21.649Z,10.9
2016-12-02T12:04:21.802Z,10.8
2016-12-02T12:05:21.729Z,10.86
2016-12-02T12:06:21.834Z,10.83
2016-12-02T12:07:21.675Z,10.84
2016-12-02T12:08:21.899Z,10.99
2016-12-02T12:09:21.761Z,11.11
2016-12-02T12:10:21.715Z,11.17
2016-12-02T12:11:21.768Z,11.26
2016-12-02T12:12:21.783Z,10.99
2016-12-02T12:13:21.817Z,11.08
2016-12-02T12:14:21.815Z,11.03
2016-12-02T12:15:21.816Z,10.83
2016-12-02T12:16:21.711Z,10.84
2016-12-02T12:17:21.706Z,10.72
2016-12-02T12:18:24.001Z,10.55
2016-12-02T12:19:21.707Z,10.6
2016-12-02T12:20:21.666Z,10.54
2016-12-02T12:21:21.699Z,10.32
2016-12-02T12:22:21.857Z,10.36
2016-12-02T12:23:21.695Z,10.29
2016-12-02T12:24:21.777Z,10.29
2016-12-02T12:25:21.771Z,10.11
2016-12-02T12:26:21.665Z,9.95
2016-12-02T12:27:21.743Z,10.07
2016-12-02T12:28:24.023Z,10.04
2016-12-02T12:29:21.713Z,9.98
2016-12-02T12:30:21.936Z,9.86
2016-12-02T12:31:21.732Z,9.77
2016-12-02T12:32:21.707Z,9.81
2016-12-02T12:33:21.936Z,9.83
2016-12-02T12:34:21.919Z,9.78
2016-12-02T12:35:21.710Z,9.81
2016-12-02T12:36:21.609Z,9.77
2016-12-02T12:37:21.719Z,9.65
2016-12-02T12:38:21.713Z,9.71
2016-12-02T12:39:21.881Z,9.73
2016-12-02T12:40:21.727Z,9.78
2016-12-02T12:41:22.546Z,9.78
2016-12-02T12:42:22.058Z,9.58
2016-12-02T12:43:21.685Z,9.59
2016-12-02T12:44:21.915Z,9.59
2016-12-02T12:45:21.755Z,9.59
2016-12-02T12:46:21.756Z,9.6
2016-12-02T12:47:21.757Z,9.59
2016-12-02T12:48:21.757Z,9.67
2016-12-02T12:49:22.430Z,9.63
2016-12-02T12:50:21.792Z,9.7
2016-12-02T12:51:21.858Z,9.74
2016-12-02T12:52:21.902Z,9.74
2016-12-02T12:53:21.738Z,9.83
2016-12-02T12:54:21.916Z,9.81
2016-12-02T12:55:21.834Z,9.86
2016-12-02T12:56:21.852Z,9.93
2016-12-02T12:57:21.808Z,9.99
2016-12-02T12:58:21.948Z,9.98
2016-12-02T12:59:22.059Z,10.09
2016-12-02T13:00:21.678Z,9.99
2016-12-02T13:01:21.815Z,9.98
2016-12-02T13:02:21.811Z,10.01
2016-12-02T13:03:21.747Z,9.88
2016-12-02T13:04:22.009Z,10.06
2016-12-02T13:05:22.012Z,9.95
2016-12-02T13:06:21.789Z,9.78
2016-12-02T13:07:21.792Z,9.85
2016-12-02T13:08:21.768Z,9.96
2016-12-02T13:09:21.953Z,9.96
2016-12-02T13:10:21.923Z,10.01
2016-12-02T13:11:22.516Z,10.09
2016-12-02T13:12:21.840Z,10.29
2016-12-02T13:13:21.847Z,10.43
2016-12-02T13:14:22.077Z,10.54
2016-12-02T13:15:22.778Z,10.58
2016-12-02T13:16:21.909Z,10.65
2016-12-02T13:17:21.817Z,10.68
2016-12-02T13:18:21.834Z,10.75
2016-12-02T13:19:22.058Z,10.6
2016-12-02T13:20:21.896Z,10.58
2016-12-02T13:21:21.720Z,10.66
2016-12-02T13:22:21.822Z,10.66
2016-12-02T13:23:22.465Z,10.57
2016-12-02T13:24:21.873Z,10.54
2016-12-02T13:25:21.933Z,10.58
2016-12-02T13:26:22.104Z,10.63
2016-12-02T13:27:21.778Z,10.6
2016-12-02T13:28:22.048Z,10.62